createdAt,value
2022-11-21T00:03:41.962Z,98012.31
2022-11-21T00:08:45.873Z,98010.13
2022-11-21T00:13:49.525Z,98005.22
2022-11-21T00:18:52.853Z,97999.81
2022-11-21T00:23:55.959Z,97994.94
2022-11-21T00:28:59.267Z,97977.88
2022-11-21T00:34:07.062Z,97994.13
2022-11-21T00:39:16.563Z,97990.03
2022-11-21T00:44:19.814Z,97985.09
2022-11-21T00:49:23.928Z,97995.81
2022-11-21T00:54:27.383Z,97990.06
2022-11-21T00:59:31.094Z,97985.13
2022-11-21T01:04:35.933Z,97978.03
2022-11-21T01:09:39.467Z,97984.47
2022-11-21T01:14:42.960Z,97985.78
2022-11-21T01:19:46.467Z,97988.78
2022-11-21T01:24:49.967Z,97992.09
2022-11-21T01:29:53.927Z,97992.09
2022-11-21T01:34:57.216Z,97972.38
2022-11-21T01:40:00.748Z,97978.88
2022-11-21T01:45:47.199Z,97972.97
2022-11-21T01:50:50.594Z,97971.84
2022-11-21T01:55:54.261Z,97966.16
2022-11-21T02:00:58.311Z,97961.50
2022-11-21T02:06:01.764Z,97969.59
2022-11-21T02:11:42.440Z,97966.59
2022-11-21T02:16:46.936Z,97975.47
2022-11-21T02:21:58.171Z,97965.69
2022-11-21T02:27:02.439Z,97951.78
2022-11-21T02:32:06.747Z,97947.72
2022-11-21T02:37:10.851Z,97955.78
2022-11-21T02:42:33.518Z,97950.06
2022-11-21T02:47:39.580Z,97937.00
2022-11-21T02:52:42.969Z,97939.41
2022-11-21T02:57:45.996Z,97942.84
2022-11-21T03:02:49.336Z,97940.34
2022-11-21T03:07:52.642Z,97945.59
2022-11-21T03:12:56.151Z,97953.63
2022-11-21T03:18:00.026Z,97938.19
2022-11-21T03:23:04.279Z,97949.06
2022-11-21T03:28:07.773Z,97942.91
2022-11-21T03:33:10.984Z,97951.41
2022-11-21T03:38:13.879Z,97927.72
2022-11-21T03:43:17.125Z,97927.81
2022-11-21T03:48:20.533Z,97928.44
2022-11-21T03:53:24.062Z,97923.59
2022-11-21T03:58:28.093Z,97913.97
2022-11-21T04:03:32.159Z,97933.31
2022-11-21T04:08:35.877Z,97923.69
2022-11-21T04:13:39.409Z,97933.22
2022-11-21T04:18:42.784Z,97940.78
2022-11-21T04:23:46.078Z,97944.25
2022-11-21T04:28:49.586Z,97955.03
2022-11-21T04:33:52.982Z,97954.00
2022-11-21T04:38:56.538Z,97960.31
2022-11-21T04:44:00.265Z,97962.63
2022-11-21T04:49:03.955Z,97953.31
2022-11-21T04:54:08.466Z,97946.66
2022-11-21T04:59:11.836Z,97959.44
2022-11-21T05:04:15.322Z,97968.41
2022-11-21T05:09:18.707Z,97974.38
2022-11-21T05:14:22.141Z,97978.72
2022-11-21T05:19:25.663Z,97980.56
2022-11-21T05:24:29.223Z,97997.03
2022-11-21T05:29:32.498Z,98000.81
2022-11-21T05:34:35.468Z,97999.16
2022-11-21T05:39:38.464Z,97997.09
2022-11-21T05:44:41.803Z,98003.63
2022-11-21T05:49:45.044Z,98006.97
2022-11-21T05:54:47.892Z,98007.31
2022-11-21T05:59:50.922Z,97996.84
2022-11-21T06:04:53.945Z,97989.53
2022-11-21T06:09:57.166Z,97996.22
2022-11-21T06:15:00.261Z,97992.69
2022-11-21T06:20:03.557Z,98003.75
2022-11-21T06:25:06.961Z,97990.72
2022-11-21T06:30:11.278Z,97989.09
2022-11-21T06:35:14.798Z,97989.41
2022-11-21T06:40:18.165Z,97992.81
2022-11-21T06:45:21.937Z,98001.28
2022-11-21T06:50:26.202Z,97987.00
2022-11-21T06:55:31.132Z,97991.38
2022-11-21T07:00:35.256Z,97987.56
2022-11-21T07:05:39.361Z,97972.97
2022-11-21T07:11:03.447Z,97967.56
2022-11-21T07:16:11.229Z,97962.41
2022-11-21T07:21:14.545Z,97966.22
2022-11-21T07:26:18.485Z,97966.47
2022-11-21T07:31:21.772Z,97967.88
2022-11-21T07:36:25.049Z,97967.66
2022-11-21T07:41:28.363Z,97953.31
2022-11-21T07:46:31.769Z,97955.78
2022-11-21T07:51:34.855Z,97957.97
2022-11-21T07:56:38.115Z,97955.78
2022-11-21T08:01:45.233Z,97935.97
2022-11-21T08:06:49.044Z,97928.09
2022-11-21T08:11:52.680Z,97915.56
2022-11-21T08:16:56.174Z,97923.72
2022-11-21T08:22:00.096Z,97922.34
2022-11-21T08:27:03.270Z,97935.16
2022-11-21T08:32:06.648Z,97926.97
2022-11-21T08:37:10.392Z,97927.22
2022-11-21T08:42:14.473Z,97926.94
2022-11-21T08:47:17.809Z,97917.44
2022-11-21T08:52:21.230Z,97903.78
2022-11-21T08:57:24.671Z,97907.72
2022-11-21T09:02:27.789Z,97901.66
2022-11-21T09:07:31.094Z,97899.38
2022-11-21T09:12:34.673Z,97875.81
2022-11-21T09:17:38.604Z,97881.09
2022-11-21T09:22:44.628Z,97890.56
2022-11-21T09:27:48.050Z,97862.28
2022-11-21T09:32:51.335Z,97871.56
2022-11-21T09:37:54.586Z,97860.69
2022-11-21T09:43:06.415Z,97852.69
2022-11-21T09:48:13.837Z,97844.47
2022-11-21T09:53:51.383Z,97838.94
2022-11-21T09:59:08.388Z,97842.22
2022-11-21T10:04:11.871Z,97836.41
2022-11-21T10:09:25.761Z,97829.56
2022-11-21T10:15:10.742Z,97818.69
2022-11-21T10:20:44.085Z,97812.38
2022-11-21T10:26:03.376Z,97803.91
2022-11-21T10:31:11.803Z,97799.22
2022-11-21T10:36:41.026Z,97792.59
2022-11-21T10:41:53.552Z,97789.38
2022-11-21T10:46:57.224Z,97782.13
2022-11-21T10:52:08.145Z,97776.00
2022-11-21T10:57:18.838Z,97771.94
2022-11-21T11:02:26.123Z,97778.94
2022-11-21T11:07:29.433Z,97772.31
2022-11-21T11:12:33.151Z,97773.63
2022-11-21T11:17:36.474Z,97772.50
2022-11-21T11:22:39.516Z,97777.69
2022-11-21T11:27:43.539Z,97765.50
2022-11-21T11:32:48.080Z,97761.91
2022-11-21T11:38:01.523Z,97763.84
2022-11-21T11:43:13.522Z,97752.50
2022-11-21T11:48:18.770Z,97729.94
2022-11-21T11:53:28.634Z,97742.81
2022-11-21T11:58:49.567Z,97740.78
2022-11-21T12:04:11.115Z,97736.88
2022-11-21T12:09:23.729Z,97747.53
2022-11-21T12:14:33.661Z,97744.53
2022-11-21T12:19:39.620Z,97740.78
2022-11-21T12:24:43.366Z,97734.59
2022-11-21T12:30:09.624Z,97734.91
2022-11-21T12:35:16.837Z,97729.41
2022-11-21T12:40:37.955Z,97713.78
2022-11-21T12:45:57.896Z,97703.31
2022-11-21T12:51:37.862Z,97697.31
2022-11-21T12:56:59.619Z,97689.22
2022-11-21T13:02:23.213Z,97690.97
2022-11-21T13:07:31.598Z,97689.00
2022-11-21T13:12:52.138Z,97681.22
2022-11-21T13:18:33.780Z,97676.19
2022-11-21T13:23:42.508Z,97677.19
2022-11-21T13:28:47.517Z,97669.84
2022-11-21T13:33:51.761Z,97666.00
2022-11-21T13:38:55.033Z,97657.69
2022-11-21T13:44:32.793Z,97653.63
2022-11-21T13:50:06.769Z,97652.41
2022-11-21T13:55:49.454Z,97657.22
2022-11-21T14:01:28.951Z,97656.78
2022-11-21T14:06:36.758Z,97648.19
2022-11-21T14:11:52.139Z,97656.97
2022-11-21T14:17:40.408Z,97656.72
2022-11-21T14:23:34.012Z,97664.16
2022-11-21T14:28:37.882Z,97648.84
2022-11-21T14:33:45.151Z,97657.25
2022-11-21T14:39:07.500Z,97656.81
2022-11-21T14:44:17.283Z,97659.09
2022-11-21T14:49:28.090Z,97665.13
2022-11-21T14:55:06.391Z,97671.44
2022-11-21T15:00:36.224Z,97673.13
2022-11-21T15:11:05.704Z,97673.72
2022-11-21T15:16:09.591Z,97674.00
2022-11-21T15:21:15.996Z,97679.91
2022-11-21T15:26:32.326Z,97681.53
2022-11-21T15:31:35.625Z,97680.19
2022-11-21T15:36:38.952Z,97684.25
2022-11-21T15:41:42.168Z,97686.44
2022-11-21T15:46:45.482Z,97692.25
2022-11-21T15:52:06.714Z,97686.28
2022-11-21T15:57:11.215Z,97699.69
2022-11-21T16:02:15.059Z,97685.00
2022-11-21T16:07:18.428Z,97691.81
2022-11-21T16:12:22.039Z,97680.13
2022-11-21T16:17:25.601Z,97690.50
2022-11-21T16:22:29.038Z,97700.34
2022-11-21T16:27:32.887Z,97696.00
2022-11-21T16:32:36.310Z,97686.22
2022-11-21T16:37:40.115Z,97683.78
2022-11-21T16:42:43.840Z,97684.09
2022-11-21T16:47:48.901Z,97675.69
2022-11-21T16:52:52.629Z,97678.47
2022-11-21T16:57:57.155Z,97685.31
2022-11-21T17:03:01.028Z,97683.94
2022-11-21T17:08:04.603Z,97684.75
2022-11-21T17:13:07.996Z,97696.81
2022-11-21T17:18:11.531Z,97694.41
2022-11-21T17:23:15.064Z,97686.59
2022-11-21T17:28:18.454Z,97688.28
2022-11-21T17:33:21.749Z,97681.25
2022-11-21T17:38:32.435Z,97673.94
2022-11-21T17:43:43.630Z,97672.66
2022-11-21T17:48:54.249Z,97667.25
2022-11-21T17:53:58.410Z,97669.16
2022-11-21T17:59:02.519Z,97673.00
2022-11-21T18:04:11.899Z,97667.59
2022-11-21T18:09:28.497Z,97668.72
2022-11-21T18:14:34.121Z,97659.16
2022-11-21T18:19:37.330Z,97666.75
2022-11-21T18:24:41.238Z,97671.13
2022-11-21T18:29:45.328Z,97662.03
2022-11-21T18:34:48.679Z,97668.31
2022-11-21T18:39:51.968Z,97659.09
2022-11-21T18:44:55.336Z,97657.81
2022-11-21T18:49:59.113Z,97655.75
2022-11-21T18:55:02.867Z,97662.81
2022-11-21T19:00:06.928Z,97663.16
2022-11-21T19:05:10.635Z,97645.00
2022-11-21T19:10:41.429Z,97649.63
2022-11-21T19:15:37.408Z,97646.06
2022-11-21T19:20:41.991Z,97650.47
2022-11-21T19:25:45.481Z,97648.84
2022-11-21T19:30:48.613Z,97636.66
2022-11-21T19:35:52.515Z,97641.56
2022-11-21T19:41:07.544Z,97642.13
2022-11-21T19:46:11.969Z,97641.63
2022-11-21T19:51:15.215Z,97649.25
2022-11-21T19:56:32.533Z,97654.97
2022-11-21T20:01:35.971Z,97639.28
2022-11-21T20:06:41.997Z,97632.78
2022-11-21T20:11:48.883Z,97622.50
2022-11-21T20:16:55.184Z,97626.84
2022-11-21T20:21:58.441Z,97636.09
2022-11-21T20:27:04.524Z,97634.75
2022-11-21T20:32:10.906Z,97638.28
2022-11-21T20:37:18.872Z,97638.28
2022-11-21T20:42:22.334Z,97639.09
2022-11-21T20:47:25.724Z,97642.09
2022-11-21T20:53:49.817Z,97641.53
2022-11-21T20:57:57.321Z,97649.69
2022-11-21T21:03:00.617Z,97628.28
2022-11-21T21:08:05.503Z,97631.78
2022-11-21T21:13:11.897Z,97626.66
2022-11-21T21:18:15.906Z,97628.00
2022-11-21T21:23:19.578Z,97629.34
2022-11-21T21:28:22.879Z,97623.66
2022-11-21T21:33:28.534Z,97647.84
2022-11-21T21:38:31.776Z,97653.28
2022-11-21T21:43:36.581Z,97661.16
2022-11-21T21:48:41.086Z,97653.06
2022-11-21T21:53:46.248Z,97653.06
2022-11-21T21:58:52.915Z,97663.06
2022-11-21T22:04:01.491Z,97661.44
2022-11-21T22:09:05.833Z,97648.13
2022-11-21T22:14:15.369Z,97646.53
2022-11-21T22:19:18.932Z,97641.63
2022-11-21T22:24:26.940Z,97638.59
2022-11-21T22:29:30.421Z,97622.53
2022-11-21T22:34:33.712Z,97639.31
2022-11-21T22:39:36.923Z,97636.31
2022-11-21T22:44:40.622Z,97634.38
2022-11-21T22:49:44.902Z,97640.06
2022-11-21T22:54:59.139Z,97635.94
2022-11-21T23:00:02.466Z,97643.00
2022-11-21T23:05:07.461Z,97643.56
2022-11-21T23:10:13.184Z,97653.06
2022-11-21T23:15:16.533Z,97630.59
2022-11-21T23:20:20.170Z,97644.13
2022-11-21T23:25:23.518Z,97641.41
2022-11-21T23:30:29.332Z,97637.34
2022-11-21T23:35:33.518Z,97619.94
2022-11-21T23:40:40.686Z,97620.19
2022-11-21T23:45:44.273Z,97629.44
2022-11-21T23:50:48.642Z,97628.63
2022-11-21T23:55:54.649Z,97628.69
